createdAt,value
2019-05-20T00:03:54.426Z,9.25
2019-05-20T00:09:00.928Z,8.78
2019-05-20T00:14:09.195Z,9.00
2019-05-20T00:19:15.586Z,9.95
2019-05-20T00:24:22.133Z,9.53
2019-05-20T00:29:28.758Z,8.78
2019-05-20T00:34:35.819Z,9.65
2019-05-20T00:39:43.421Z,9.98
2019-05-20T00:44:50.047Z,10.40
2019-05-20T00:49:56.613Z,9.85
2019-05-20T00:55:03.261Z,9.45
2019-05-20T01:00:10.404Z,9.15
2019-05-20T01:05:17.009Z,9.30
2019-05-20T01:10:23.629Z,9.70
2019-05-20T01:15:30.246Z,10.58
2019-05-20T01:20:36.946Z,9.33
2019-05-20T01:25:43.460Z,9.20
2019-05-20T01:30:50.081Z,9.40
2019-05-20T01:35:56.790Z,8.88
2019-05-20T01:41:03.331Z,9.40
2019-05-20T01:46:10.062Z,10.25
2019-05-20T01:51:16.614Z,10.43
2019-05-20T01:56:23.064Z,10.45
2019-05-20T02:01:29.694Z,11.15
2019-05-20T02:06:36.304Z,10.40
2019-05-20T02:11:42.756Z,10.65
2019-05-20T02:16:49.293Z,10.58
2019-05-20T02:21:55.945Z,11.95
2019-05-20T02:27:02.318Z,10.38
2019-05-20T02:32:08.783Z,11.08
2019-05-20T02:37:15.320Z,10.65
2019-05-20T02:42:21.953Z,13.18
2019-05-20T02:47:28.530Z,11.60
2019-05-20T02:52:35.193Z,11.48
2019-05-20T02:57:41.820Z,12.63
2019-05-20T03:02:48.440Z,14.18
2019-05-20T03:07:55.068Z,14.30
2019-05-20T03:13:01.688Z,13.28
2019-05-20T03:18:08.218Z,12.82
2019-05-20T03:23:14.849Z,13.53
2019-05-20T03:28:21.388Z,13.65
2019-05-20T03:33:28.100Z,12.05
2019-05-20T03:38:34.620Z,12.70
2019-05-20T03:43:41.144Z,12.98
2019-05-20T03:48:47.701Z,12.00
2019-05-20T03:53:54.295Z,12.40
2019-05-20T03:59:00.911Z,12.10
2019-05-20T04:04:07.542Z,11.60
2019-05-20T04:09:14.161Z,14.05
2019-05-20T04:14:20.782Z,14.28
2019-05-20T04:19:27.327Z,14.13
2019-05-20T04:24:33.951Z,13.93
2019-05-20T04:29:40.519Z,13.50
2019-05-20T04:34:47.131Z,13.70
2019-05-20T04:39:53.693Z,13.22
2019-05-20T04:45:00.264Z,14.10
2019-05-20T04:50:08.048Z,13.83
2019-05-20T04:55:14.749Z,13.75
2019-05-20T05:00:58.247Z,13.62
2019-05-20T05:06:05.089Z,13.60
2019-05-20T05:11:11.807Z,14.43
2019-05-20T05:16:18.418Z,17.40
2019-05-20T05:21:25.033Z,14.25
2019-05-20T05:26:31.631Z,15.83
2019-05-20T05:31:38.253Z,15.90
2019-05-20T05:36:44.878Z,14.50
2019-05-20T05:41:51.459Z,15.00
2019-05-20T05:46:58.128Z,14.80
2019-05-20T05:52:04.693Z,15.50
2019-05-20T05:57:11.297Z,14.95
2019-05-20T06:02:17.865Z,15.40
2019-05-20T06:07:24.464Z,15.03
2019-05-20T06:12:31.208Z,14.53
2019-05-20T06:17:38.874Z,15.53
2019-05-20T06:22:45.668Z,15.03
2019-05-20T06:27:53.281Z,15.50
2019-05-20T06:32:59.930Z,15.72
2019-05-20T06:38:09.974Z,16.42
2019-05-20T06:43:16.620Z,17.75
2019-05-20T06:48:23.315Z,15.80
2019-05-20T06:53:29.997Z,15.40
2019-05-20T06:58:36.486Z,14.98
2019-05-20T07:03:43.335Z,15.90
2019-05-20T07:08:50.056Z,15.30
2019-05-20T07:13:56.563Z,16.73
2019-05-20T07:19:03.261Z,15.38
2019-05-20T07:24:10.155Z,15.25
2019-05-20T07:29:16.711Z,16.15
2019-05-20T07:34:23.354Z,14.25
2019-05-20T07:39:30.069Z,15.08
2019-05-20T07:44:36.721Z,15.72
2019-05-20T07:49:43.902Z,16.67
2019-05-20T07:54:52.539Z,16.07
2019-05-20T07:59:59.742Z,16.60
2019-05-20T08:05:08.235Z,17.00
2019-05-20T08:10:15.224Z,16.85
2019-05-20T08:15:21.910Z,16.80
2019-05-20T08:20:28.668Z,15.88
2019-05-20T08:25:35.415Z,17.17
2019-05-20T08:30:42.276Z,15.75
2019-05-20T08:35:49.159Z,16.17
2019-05-20T08:40:55.785Z,16.57
2019-05-20T08:46:05.484Z,16.42
2019-05-20T08:51:14.867Z,16.52
2019-05-20T08:56:26.981Z,17.05
2019-05-20T09:01:36.818Z,16.80
2019-05-20T09:06:43.762Z,17.62
2019-05-20T09:11:52.854Z,18.10
2019-05-20T09:16:59.592Z,17.48
2019-05-20T09:22:06.294Z,17.35
2019-05-20T09:27:13.043Z,18.65
2019-05-20T09:32:20.010Z,17.57
2019-05-20T09:37:26.902Z,17.87
2019-05-20T09:42:33.629Z,17.87
2019-05-20T09:47:40.393Z,18.92
2019-05-20T09:52:47.031Z,17.25
2019-05-20T09:57:55.431Z,16.82
2019-05-20T10:03:02.276Z,19.17
2019-05-20T10:08:09.062Z,17.67
2019-05-20T10:13:15.735Z,17.92
2019-05-20T10:18:36.601Z,18.07
2019-05-20T10:23:30.739Z,17.15
2019-05-20T10:28:42.057Z,17.70
2019-05-20T10:33:45.455Z,17.12
2019-05-20T10:38:58.586Z,16.75
2019-05-20T10:44:00.504Z,16.15
2019-05-20T10:49:07.097Z,15.78
2019-05-20T10:54:13.738Z,16.05
2019-05-20T10:59:20.381Z,16.42
2019-05-20T11:04:27.017Z,15.88
2019-05-20T11:09:33.667Z,17.40
2019-05-20T11:14:40.269Z,16.30
2019-05-20T11:19:46.867Z,17.00
2019-05-20T11:24:53.458Z,16.73
2019-05-20T11:30:00.032Z,16.73
2019-05-20T11:35:12.974Z,17.70
2019-05-20T11:40:21.331Z,16.90
2019-05-20T11:45:28.247Z,17.37
2019-05-20T11:50:34.946Z,21.90
2019-05-20T11:55:41.604Z,17.42
2019-05-20T12:00:48.247Z,17.95
2019-05-20T12:05:54.939Z,17.73
2019-05-20T12:11:01.563Z,17.73
2019-05-20T12:16:08.144Z,18.80
2019-05-20T12:21:14.565Z,19.30
2019-05-20T12:26:22.734Z,19.90
2019-05-20T12:31:29.499Z,19.02
2019-05-20T12:36:36.208Z,19.40
2019-05-20T12:41:42.918Z,21.30
2019-05-20T12:46:49.571Z,21.20
2019-05-20T12:51:56.228Z,19.77
2019-05-20T12:57:02.899Z,21.02
2019-05-20T13:02:18.112Z,22.00
2019-05-20T13:07:24.768Z,22.10
2019-05-20T13:12:31.563Z,22.40
2019-05-20T13:17:42.890Z,21.77
2019-05-20T13:22:47.863Z,22.87
2019-05-20T13:27:54.887Z,21.75
2019-05-20T13:33:01.707Z,21.45
2019-05-20T13:38:08.425Z,23.77
2019-05-20T13:43:15.013Z,22.22
2019-05-20T13:48:21.635Z,21.15
2019-05-20T13:53:28.572Z,21.85
2019-05-20T13:58:35.278Z,21.70
2019-05-20T14:03:42.214Z,19.62
2019-05-20T14:08:48.883Z,18.95
2019-05-20T14:13:55.847Z,18.15
2019-05-20T14:19:02.802Z,17.77
2019-05-20T14:24:09.504Z,15.58
2019-05-20T14:29:16.673Z,16.57
2019-05-20T14:34:25.635Z,15.90
2019-05-20T14:39:35.206Z,16.93
2019-05-20T14:44:42.498Z,15.43
2019-05-20T14:49:49.113Z,14.00
2019-05-20T14:54:55.984Z,14.55
2019-05-20T15:00:04.859Z,12.63
2019-05-20T15:05:13.471Z,12.95
2019-05-20T15:10:21.947Z,13.50
2019-05-20T15:15:29.785Z,15.20
2019-05-20T15:20:36.702Z,16.02
2019-05-20T15:25:44.244Z,17.00
2019-05-20T15:30:51.010Z,21.73
2019-05-20T15:35:58.048Z,13.05
2019-05-20T15:41:05.717Z,7.37
2019-05-20T15:46:12.620Z,3.60
2019-05-20T15:51:19.481Z,3.20
2019-05-20T15:56:26.174Z,3.33
2019-05-20T16:01:32.804Z,2.20
2019-05-20T16:06:39.407Z,1.82
2019-05-20T16:11:45.950Z,1.27
2019-05-20T16:16:52.655Z,1.47
2019-05-20T16:21:59.313Z,2.25
2019-05-20T16:27:05.969Z,1.72
2019-05-20T16:32:12.629Z,1.50
2019-05-20T16:37:19.101Z,3.00
2019-05-20T16:42:25.671Z,2.40
2019-05-20T16:47:32.281Z,2.37
2019-05-20T16:52:38.970Z,2.90
2019-05-20T16:57:45.591Z,3.22
2019-05-20T17:02:52.218Z,4.40
2019-05-20T17:08:00.626Z,26.65
2019-05-20T17:13:07.479Z,20.10
2019-05-20T17:18:14.230Z,3.95
2019-05-20T17:23:22.007Z,3.98
2019-05-20T17:28:29.683Z,3.90
2019-05-20T17:33:36.691Z,4.35
2019-05-20T17:38:43.514Z,4.20
2019-05-20T17:43:50.168Z,5.37
2019-05-20T17:48:56.770Z,6.05
2019-05-20T17:54:04.445Z,5.20
2019-05-20T17:59:12.908Z,5.85
2019-05-20T18:04:21.420Z,6.65
2019-05-20T18:09:29.545Z,7.03
2019-05-20T18:14:36.192Z,6.80
2019-05-20T18:19:42.864Z,9.00
2019-05-20T18:24:52.989Z,8.15
2019-05-20T18:29:59.728Z,8.25
2019-05-20T18:35:06.437Z,7.62
2019-05-20T18:40:15.101Z,7.10
2019-05-20T18:45:22.037Z,7.17
2019-05-20T18:50:28.569Z,7.17
2019-05-20T18:55:35.269Z,7.10
2019-05-20T19:00:42.006Z,7.08
2019-05-20T19:05:48.577Z,7.47
2019-05-20T19:10:55.333Z,7.40
2019-05-20T19:16:01.890Z,7.40
2019-05-20T19:21:08.436Z,7.85
2019-05-20T19:26:24.468Z,8.20
2019-05-20T19:31:23.492Z,8.53
2019-05-20T19:36:30.146Z,8.65
2019-05-20T19:41:36.842Z,9.05
2019-05-20T19:46:43.386Z,8.03
2019-05-20T19:51:50.085Z,8.20
2019-05-20T19:56:56.628Z,7.08
2019-05-20T20:02:16.454Z,9.13
2019-05-20T20:07:12.127Z,7.83
2019-05-20T20:12:18.758Z,8.80
2019-05-20T20:17:25.256Z,9.10
2019-05-20T20:22:31.755Z,9.50
2019-05-20T20:27:38.545Z,7.70
2019-05-20T20:32:45.221Z,8.35
2019-05-20T20:37:51.922Z,7.80
2019-05-20T20:42:58.605Z,7.78
2019-05-20T20:48:05.217Z,7.53
2019-05-20T20:53:11.828Z,7.00
2019-05-20T20:58:18.317Z,7.22
2019-05-20T21:03:24.989Z,6.75
2019-05-20T21:08:31.554Z,6.20
2019-05-20T21:13:38.135Z,6.12
2019-05-20T21:18:45.702Z,5.58
2019-05-20T21:23:52.167Z,5.62
2019-05-20T21:28:58.580Z,5.30
2019-05-20T21:34:05.130Z,5.10
2019-05-20T21:39:11.825Z,4.92
2019-05-20T21:44:18.410Z,4.55
2019-05-20T21:49:26.003Z,4.85
2019-05-20T21:54:32.592Z,6.22
2019-05-20T21:59:39.006Z,6.10
2019-05-20T22:04:45.479Z,5.45
2019-05-20T22:09:52.880Z,5.70
2019-05-20T22:14:59.309Z,6.42
2019-05-20T22:20:06.395Z,6.78
2019-05-20T22:25:13.128Z,7.83
2019-05-20T22:30:19.749Z,6.53
2019-05-20T22:35:26.233Z,6.92
2019-05-20T22:40:32.699Z,6.87
2019-05-20T22:45:39.377Z,8.73
2019-05-20T22:50:48.751Z,10.05
2019-05-20T22:55:54.132Z,12.23
2019-05-20T23:01:00.765Z,10.80
2019-05-20T23:06:07.379Z,9.28
2019-05-20T23:11:13.944Z,8.88
2019-05-20T23:16:20.547Z,8.60
2019-05-20T23:21:27.007Z,9.10
2019-05-20T23:26:33.621Z,9.48
2019-05-20T23:31:40.355Z,10.63
2019-05-20T23:36:46.903Z,11.15
2019-05-20T23:41:53.505Z,9.78
2019-05-20T23:46:59.974Z,11.40
2019-05-20T23:52:06.539Z,11.95
2019-05-20T23:57:12.999Z,11.48
